createdAt,value
2022-10-11T00:03:45.600Z,0
2022-10-11T00:08:57.313Z,0
2022-10-11T00:14:09.158Z,0
2022-10-11T00:19:21.092Z,0
2022-10-11T00:24:32.950Z,0
2022-10-11T00:29:44.859Z,0
2022-10-11T00:34:57.004Z,0
2022-10-11T00:40:09.295Z,0
2022-10-11T00:45:21.494Z,0
2022-10-11T00:50:33.742Z,0
2022-10-11T00:55:45.968Z,0
2022-10-11T01:00:58.281Z,0
2022-10-11T01:06:10.208Z,0
2022-10-11T01:11:22.420Z,0
2022-10-11T01:16:35.773Z,0
2022-10-11T01:21:47.446Z,0
2022-10-11T01:26:59.389Z,0
2022-10-11T01:32:11.244Z,0
2022-10-11T01:37:23.112Z,1
2022-10-11T01:47:47.265Z,0
2022-10-11T01:52:59.237Z,0
2022-10-11T01:58:11.257Z,0
2022-10-11T02:03:23.281Z,0
2022-10-11T02:08:35.162Z,0
2022-10-11T02:13:47.029Z,1
2022-10-11T02:18:58.815Z,0
2022-10-11T02:24:10.736Z,1
2022-10-11T02:29:22.708Z,0
2022-10-11T02:34:34.633Z,0
2022-10-11T02:39:46.566Z,0
2022-10-11T02:44:58.550Z,0
2022-10-11T02:50:10.166Z,0
2022-10-11T02:55:22.005Z,0
2022-10-11T03:00:34.002Z,0
2022-10-11T03:05:45.949Z,0
2022-10-11T03:10:57.833Z,0
2022-10-11T03:16:11.582Z,0
2022-10-11T03:21:23.163Z,0
2022-10-11T03:26:35.037Z,0
2022-10-11T03:31:47.026Z,0
2022-10-11T03:36:59.045Z,0
2022-10-11T03:42:10.829Z,0
2022-10-11T03:47:22.979Z,0
2022-10-11T03:52:34.789Z,0
2022-10-11T03:57:47.057Z,0
2022-10-11T04:02:59.041Z,0
2022-10-11T04:08:13.122Z,0
2022-10-11T04:13:24.252Z,0
2022-10-11T04:18:36.233Z,0
2022-10-11T04:23:48.262Z,0
2022-10-11T04:29:00.266Z,0
2022-10-11T04:34:12.034Z,0
2022-10-11T04:39:23.930Z,0
2022-10-11T04:44:35.589Z,0
2022-10-11T04:49:47.533Z,0
2022-10-11T04:54:59.180Z,0
2022-10-11T05:00:10.989Z,0
2022-10-11T05:05:23.140Z,0
2022-10-11T05:15:46.796Z,2
2022-10-11T05:20:58.825Z,1
2022-10-11T05:26:10.839Z,1
2022-10-11T05:31:22.636Z,0
2022-10-11T05:36:54.549Z,0
2022-10-11T05:42:10.481Z,0
2022-10-11T05:47:21.707Z,0
2022-10-11T05:57:45.484Z,0
2022-10-11T06:02:57.221Z,0
2022-10-11T06:08:09.188Z,0
2022-10-11T06:13:21.018Z,2
2022-10-11T06:18:32.884Z,1
2022-10-11T06:23:44.769Z,0
2022-10-11T06:28:57.147Z,0
2022-10-11T06:34:08.724Z,2
2022-10-11T06:39:20.650Z,2
2022-10-11T06:44:34.905Z,0
2022-10-11T06:49:46.842Z,2
2022-10-11T06:54:58.670Z,1
2022-10-11T07:00:13.504Z,0
2022-10-11T07:05:24.389Z,0
2022-10-11T07:10:36.227Z,0
2022-10-11T07:15:48.198Z,0
2022-10-11T07:21:00.314Z,0
2022-10-11T07:26:12.579Z,0
2022-10-11T07:31:24.903Z,0
2022-10-11T07:36:36.768Z,0
2022-10-11T07:41:49.009Z,0
2022-10-11T07:47:01.144Z,0
2022-10-11T07:52:12.923Z,0
2022-10-11T07:57:25.202Z,0
2022-10-11T08:02:37.190Z,0
2022-10-11T08:07:49.328Z,0
2022-10-11T08:13:05.274Z,0
2022-10-11T08:18:19.359Z,0
2022-10-11T08:23:31.310Z,0
2022-10-11T08:28:43.807Z,0
2022-10-11T08:33:55.852Z,0
2022-10-11T08:39:07.983Z,0
2022-10-11T08:44:20.088Z,0
2022-10-11T08:49:32.465Z,0
2022-10-11T08:54:44.900Z,0
2022-10-11T08:59:57.178Z,0
2022-10-11T09:05:09.566Z,1
2022-10-11T09:10:21.825Z,3
2022-10-11T09:15:33.964Z,6
2022-10-11T09:20:46.481Z,6
2022-10-11T09:25:58.968Z,10
2022-10-11T09:31:10.985Z,12
2022-10-11T09:36:23.111Z,13
2022-10-11T09:46:47.625Z,14
2022-10-11T09:51:59.933Z,17
2022-10-11T09:57:12.192Z,18
2022-10-11T10:02:24.573Z,19
2022-10-11T10:07:36.935Z,22
2022-10-11T10:12:49.267Z,23
2022-10-11T10:18:01.582Z,24
2022-10-11T10:23:13.967Z,29
2022-10-11T10:28:26.830Z,33
2022-10-11T10:33:39.196Z,32
2022-10-11T10:38:53.206Z,34
2022-10-11T10:44:04.937Z,32
2022-10-11T10:49:55.707Z,35
2022-10-11T10:55:03.224Z,97
2022-10-11T11:00:15.723Z,93
2022-10-11T11:05:27.941Z,92
2022-10-11T11:10:41.113Z,87
2022-10-11T11:15:56.146Z,76
2022-10-11T11:21:10.488Z,72
2022-10-11T11:26:24.393Z,65
2022-10-11T11:31:37.512Z,63
2022-10-11T11:36:50.872Z,63
2022-10-11T11:42:03.932Z,60
2022-10-11T11:47:17.143Z,58
2022-10-11T11:52:29.798Z,58
2022-10-11T12:02:53.003Z,59
2022-10-11T12:08:05.445Z,59
2022-10-11T12:13:17.735Z,62
2022-10-11T12:18:30.011Z,62
2022-10-11T12:23:42.325Z,66
2022-10-11T12:28:55.404Z,60
2022-10-11T12:34:08.695Z,60
2022-10-11T12:39:22.125Z,57
2022-10-11T13:05:13.551Z,70
2022-10-11T13:10:25.491Z,70
2022-10-11T13:20:49.897Z,70
2022-10-11T13:31:11.977Z,75
2022-10-11T13:41:33.931Z,78
2022-10-11T13:46:46.008Z,80
2022-10-11T13:51:58.326Z,80
2022-10-11T13:57:11.323Z,75
2022-10-11T14:02:24.269Z,70
2022-10-11T14:28:18.982Z,81
2022-10-11T14:33:31.034Z,81
2022-10-11T14:38:43.129Z,86
2022-10-11T14:43:55.473Z,84
2022-10-11T14:49:07.668Z,84
2022-10-11T14:54:24.041Z,81
2022-10-11T15:04:48.368Z,81
2022-10-11T15:10:00.572Z,82
2022-10-11T15:15:17.657Z,82
2022-10-11T15:20:32.241Z,82
2022-10-11T15:25:44.642Z,85
2022-10-11T15:30:57.153Z,85
2022-10-11T15:36:10.501Z,84
2022-10-11T15:41:22.277Z,85
2022-10-11T15:46:34.521Z,84
2022-10-11T15:51:46.866Z,86
2022-10-11T15:56:58.716Z,88
2022-10-11T16:02:11.451Z,88
2022-10-11T16:07:23.370Z,90
2022-10-11T16:12:39.789Z,92
2022-10-11T16:17:54.495Z,93
2022-10-11T16:23:06.459Z,95
2022-10-11T16:28:18.983Z,96
2022-10-11T16:33:31.444Z,97
2022-10-11T16:38:43.540Z,98
2022-10-11T16:43:55.843Z,97
2022-10-11T16:49:08.252Z,97
2022-10-11T16:54:21.920Z,97
2022-10-11T16:59:43.110Z,97
2022-10-11T17:04:54.193Z,97
2022-10-11T17:10:06.700Z,96
2022-10-11T17:15:18.778Z,95
2022-10-11T17:20:31.142Z,94
2022-10-11T17:25:43.367Z,92
2022-10-11T17:30:55.508Z,91
2022-10-11T17:36:09.443Z,88
2022-10-11T17:41:21.750Z,88
2022-10-11T17:46:33.958Z,88
2022-10-11T17:51:46.197Z,89
2022-10-11T17:56:58.304Z,89
2022-10-11T18:02:10.566Z,89
2022-10-11T18:07:22.803Z,88
2022-10-11T18:12:34.838Z,87
2022-10-11T18:17:47.124Z,87
2022-10-11T18:22:59.496Z,86
2022-10-11T18:28:12.007Z,85
2022-10-11T18:33:24.105Z,85
2022-10-11T18:38:36.323Z,83
2022-10-11T18:43:48.138Z,81
2022-10-11T18:48:59.964Z,79
2022-10-11T18:54:22.017Z,77
2022-10-11T18:59:34.168Z,72
2022-10-11T19:04:45.927Z,61
2022-10-11T19:09:57.984Z,61
2022-10-11T19:15:09.968Z,57
2022-10-11T19:20:22.019Z,51
2022-10-11T19:25:34.203Z,46
2022-10-11T19:30:46.156Z,41
2022-10-11T19:35:58.625Z,41
2022-10-11T19:41:10.922Z,39
2022-10-11T19:46:53.815Z,40
2022-10-11T19:52:01.456Z,40
2022-10-11T19:57:13.204Z,38
2022-10-11T20:02:25.284Z,36
2022-10-11T20:07:37.624Z,25
2022-10-11T20:12:50.029Z,28
2022-10-11T20:18:01.989Z,31
2022-10-11T20:23:27.538Z,32
2022-10-11T20:28:37.818Z,31
2022-10-11T20:33:49.516Z,22
2022-10-11T20:39:01.201Z,23
2022-10-11T20:44:13.272Z,25
2022-10-11T20:49:25.513Z,26
2022-10-11T20:54:37.444Z,26
2022-10-11T20:59:49.657Z,21
2022-10-11T21:05:02.371Z,17
2022-10-11T21:10:14.120Z,16
2022-10-11T21:15:26.122Z,16
2022-10-11T21:20:38.847Z,16
2022-10-11T21:25:50.698Z,15
2022-10-11T21:31:02.803Z,15
2022-10-11T21:36:14.399Z,14
2022-10-11T21:41:26.274Z,9
2022-10-11T21:47:08.274Z,10
2022-10-11T21:52:15.647Z,10
2022-10-11T21:57:27.573Z,9
2022-10-11T22:02:39.382Z,9
2022-10-11T22:07:51.250Z,8
2022-10-11T22:13:03.210Z,8
2022-10-11T22:18:15.262Z,7
2022-10-11T22:23:27.111Z,7
2022-10-11T22:28:39.773Z,6
2022-10-11T22:33:51.552Z,6
2022-10-11T22:39:03.236Z,6
2022-10-11T22:44:15.194Z,5
2022-10-11T22:49:27.163Z,5
2022-10-11T22:54:39.172Z,5
2022-10-11T22:59:51.081Z,5
2022-10-11T23:05:03.075Z,5
2022-10-11T23:10:14.900Z,5
2022-10-11T23:15:26.897Z,5
2022-10-11T23:20:38.761Z,5
2022-10-11T23:25:50.528Z,5
2022-10-11T23:31:02.434Z,5
2022-10-11T23:36:14.316Z,5
2022-10-11T23:41:25.833Z,4
2022-10-11T23:46:37.879Z,4
2022-10-11T23:51:49.567Z,4
2022-10-11T23:57:01.453Z,4
